createdAt,value
2024-04-06T00:01:05.350Z,25.44
2024-04-06T00:06:24.492Z,25.43
2024-04-06T00:11:27.890Z,25.43
2024-04-06T00:16:30.910Z,25.42
2024-04-06T00:21:33.961Z,25.42
2024-04-06T00:26:40.404Z,25.41
2024-04-06T00:32:15.986Z,25.41
2024-04-06T00:37:51.940Z,25.41
2024-04-06T00:42:55.189Z,25.39
2024-04-06T00:48:30.135Z,25.38
2024-04-06T00:53:40.943Z,25.37
2024-04-06T00:59:16.573Z,25.37
2024-04-06T01:04:33.058Z,25.37
2024-04-06T01:09:36.093Z,25.36
2024-04-06T01:14:46.075Z,25.35
2024-04-06T01:20:21.437Z,25.34
2024-04-06T01:25:24.492Z,25.35
2024-04-06T01:30:27.572Z,25.33
2024-04-06T01:35:30.964Z,25.33
2024-04-06T01:40:33.974Z,25.32
2024-04-06T01:45:37.006Z,25.32
2024-04-06T01:50:41.003Z,25.31
2024-04-06T01:55:47.599Z,25.31
2024-04-06T02:00:57.153Z,25.31
2024-04-06T02:06:03.540Z,25.31
2024-04-06T02:11:19.784Z,25.30
2024-04-06T02:16:24.343Z,25.30
2024-04-06T02:27:45.968Z,25.29
2024-04-06T02:32:49.788Z,25.27
2024-04-06T02:37:52.841Z,25.26
2024-04-06T02:43:28.170Z,25.26
2024-04-06T02:48:34.975Z,25.26
2024-04-06T02:54:10.074Z,25.25
2024-04-06T02:59:14.813Z,25.25
2024-04-06T03:04:49.434Z,25.24
2024-04-06T03:10:56.980Z,25.25
2024-04-06T03:16:32.248Z,25.23
2024-04-06T03:21:35.419Z,25.22
2024-04-06T03:27:10.677Z,25.21
2024-04-06T03:32:23.158Z,25.21
2024-04-06T03:37:58.411Z,25.21
2024-04-06T03:43:01.544Z,25.21
2024-04-06T03:48:15.123Z,25.20
2024-04-06T03:53:42.351Z,25.20
2024-04-06T03:59:17.752Z,25.20
2024-04-06T04:04:22.084Z,25.19
2024-04-06T04:09:58.783Z,25.20
2024-04-06T04:15:11.029Z,25.19
2024-04-06T04:20:24.559Z,25.19
2024-04-06T04:25:59.882Z,25.20
2024-04-06T04:31:13.853Z,25.21
2024-04-06T04:36:17.000Z,25.20
2024-04-06T04:41:19.978Z,25.21
2024-04-06T04:46:23.302Z,25.22
2024-04-06T04:51:34.477Z,25.21
2024-04-06T04:57:09.610Z,25.22
2024-04-06T05:02:25.910Z,25.23
2024-04-06T05:07:46.560Z,25.23
2024-04-06T05:13:21.995Z,25.23
2024-04-06T05:18:29.745Z,25.24
2024-04-06T05:24:05.994Z,25.24
2024-04-06T05:29:15.487Z,25.26
2024-04-06T05:34:50.989Z,25.27
2024-04-06T05:39:56.341Z,25.26
2024-04-06T05:45:30.979Z,25.26
2024-04-06T05:50:47.439Z,25.27
2024-04-06T05:55:59.656Z,25.27
2024-04-06T06:01:11.666Z,25.28
2024-04-06T06:06:54.080Z,25.29
2024-04-06T06:12:03.970Z,25.30
2024-04-06T06:17:39.213Z,25.30
2024-04-06T06:22:42.275Z,25.32
2024-04-06T06:27:47.406Z,25.33
2024-04-06T06:32:51.507Z,25.34
2024-04-06T06:38:27.849Z,25.37
2024-04-06T06:43:34.634Z,25.40
2024-04-06T06:49:11.605Z,25.42
2024-04-06T06:54:19.408Z,25.45
2024-04-06T07:05:15.783Z,25.49
2024-04-06T07:10:51.343Z,25.51
2024-04-06T07:16:29.925Z,25.53
2024-04-06T07:21:39.113Z,25.56
2024-04-06T07:26:56.909Z,25.58
2024-04-06T07:32:02.264Z,25.62
2024-04-06T07:37:43.345Z,25.64
2024-04-06T07:42:55.128Z,25.67
2024-04-06T07:48:30.409Z,25.70
2024-04-06T07:53:40.887Z,25.73
2024-04-06T07:59:16.293Z,25.75
2024-04-06T08:04:19.293Z,25.78
2024-04-06T08:09:32.872Z,25.80
2024-04-06T08:15:40.329Z,25.84
2024-04-06T08:20:50.326Z,25.89
2024-04-06T08:25:54.830Z,25.89
2024-04-06T08:31:30.715Z,25.92
2024-04-06T08:36:33.786Z,25.94
2024-04-06T08:42:08.723Z,25.96
2024-04-06T08:47:14.787Z,25.97
2024-04-06T08:52:38.410Z,25.95
2024-04-06T08:58:14.619Z,25.95
2024-04-06T09:03:18.430Z,25.94
2024-04-06T09:08:53.509Z,25.95
2024-04-06T09:14:03.664Z,25.96
2024-04-06T09:19:38.688Z,25.99
2024-04-06T09:24:49.069Z,26.01
2024-04-06T09:30:26.252Z,26.02
2024-04-06T09:35:31.186Z,26.03
2024-04-06T09:40:56.211Z,26.04
2024-04-06T09:46:32.063Z,26.07
2024-04-06T09:51:35.092Z,26.11
2024-04-06T09:56:38.181Z,26.14
2024-04-06T10:01:46.099Z,26.20
2024-04-06T10:06:56.377Z,26.24
2024-04-06T10:12:04.458Z,26.30
2024-04-06T10:17:09.164Z,26.34
2024-04-06T10:22:44.618Z,26.37
2024-04-06T10:28:07.967Z,26.40
2024-04-06T10:33:11.017Z,26.42
2024-04-06T10:38:14.066Z,26.41
2024-04-06T10:43:17.265Z,26.42
2024-04-06T10:48:52.037Z,26.47
2024-04-06T10:54:03.849Z,26.55
2024-04-06T10:59:39.899Z,26.61
2024-04-06T11:04:49.545Z,26.65
2024-04-06T11:09:54.634Z,26.67
2024-04-06T11:15:01.842Z,26.70
2024-04-06T11:20:22.011Z,26.69
2024-04-06T11:25:31.079Z,26.68
2024-04-06T11:30:34.092Z,26.64
2024-04-06T11:35:43.576Z,26.61
2024-04-06T11:41:00.020Z,26.59
2024-04-06T11:46:10.058Z,26.55
2024-04-06T11:51:52.968Z,26.52
2024-04-06T11:57:08.388Z,26.49
2024-04-06T12:02:45.253Z,26.46
2024-04-06T12:08:20.214Z,26.44
2024-04-06T12:13:26.739Z,26.43
2024-04-06T12:19:02.383Z,26.40
2024-04-06T12:24:06.957Z,26.37
2024-04-06T12:29:42.445Z,26.33
2024-04-06T12:34:48.845Z,26.29
2024-04-06T12:40:25.750Z,26.27
2024-04-06T12:46:32.370Z,26.26
2024-04-06T12:51:38.874Z,26.24
2024-04-06T12:57:37.644Z,26.23
2024-04-06T13:02:49.345Z,26.23
2024-04-06T13:07:53.730Z,26.22
2024-04-06T13:12:58.102Z,26.21
2024-04-06T13:18:01.185Z,26.21
2024-04-06T13:23:04.436Z,26.19
2024-04-06T13:28:07.436Z,26.18
2024-04-06T13:33:10.556Z,26.16
2024-04-06T13:38:13.635Z,26.14
2024-04-06T13:43:16.887Z,26.12
2024-04-06T13:48:19.943Z,26.10
2024-04-06T13:53:23.200Z,26.07
2024-04-06T13:58:26.310Z,26.05
2024-04-06T14:03:29.495Z,26.03
2024-04-06T14:08:33.219Z,26.01
2024-04-06T14:13:36.373Z,25.98
2024-04-06T14:18:39.406Z,25.96
2024-04-06T14:23:42.636Z,25.94
2024-04-06T14:28:45.784Z,25.92
2024-04-06T14:33:48.931Z,25.91
2024-04-06T14:38:51.940Z,25.89
2024-04-06T14:43:55.187Z,25.87
2024-04-06T14:48:58.312Z,25.85
2024-04-06T14:54:02.313Z,25.84
2024-04-06T14:59:05.446Z,25.81
2024-04-06T15:04:08.515Z,25.80
2024-04-06T15:09:11.529Z,25.78
2024-04-06T15:14:14.554Z,25.76
2024-04-06T15:19:17.580Z,25.75
2024-04-06T15:24:21.076Z,25.73
2024-04-06T15:29:24.183Z,25.72
2024-04-06T15:34:27.357Z,25.70
2024-04-06T15:39:30.439Z,25.68
2024-04-06T15:44:33.493Z,25.67
2024-04-06T15:49:36.703Z,25.65
2024-04-06T15:54:40.309Z,25.64
2024-04-06T15:59:43.394Z,25.63
2024-04-06T16:04:46.590Z,25.62
2024-04-06T16:09:49.603Z,25.60
2024-04-06T16:14:52.679Z,25.58
2024-04-06T16:19:56.013Z,25.56
2024-04-06T16:24:59.179Z,25.55
2024-04-06T16:30:02.246Z,25.53
2024-04-06T16:35:05.703Z,25.52
2024-04-06T16:40:09.175Z,25.51
2024-04-06T16:45:12.229Z,25.50
2024-04-06T16:50:15.211Z,25.49
2024-04-06T16:55:18.395Z,25.48
2024-04-06T17:00:21.545Z,25.47
2024-04-06T17:05:24.552Z,25.46
2024-04-06T17:10:27.655Z,25.46
2024-04-06T17:15:32.616Z,25.45
2024-04-06T17:20:36.004Z,25.45
2024-04-06T17:25:39.564Z,25.44
2024-04-06T17:30:43.219Z,25.42
2024-04-06T17:35:46.265Z,25.41
2024-04-06T17:40:50.125Z,25.39
2024-04-06T17:45:54.488Z,25.38
2024-04-06T17:50:58.014Z,25.38
2024-04-06T17:56:01.201Z,25.37
2024-04-06T18:01:04.694Z,25.36
2024-04-06T18:06:08.161Z,25.36
2024-04-06T18:11:12.587Z,25.35
2024-04-06T18:16:19.738Z,25.35
2024-04-06T18:21:22.875Z,25.34
2024-04-06T18:26:26.048Z,25.34
2024-04-06T18:31:29.061Z,25.34
2024-04-06T18:36:32.386Z,25.32
2024-04-06T18:41:37.674Z,25.32
2024-04-06T18:46:40.772Z,25.31
2024-04-06T18:51:45.923Z,25.31
2024-04-06T18:56:49.083Z,25.30
2024-04-06T19:01:52.135Z,25.30
2024-04-06T19:06:56.011Z,25.29
2024-04-06T19:11:59.014Z,25.28
2024-04-06T19:17:02.039Z,25.27
2024-04-06T19:22:05.093Z,25.28
2024-04-06T19:27:08.645Z,25.27
2024-04-06T19:32:11.656Z,25.25
2024-04-06T19:37:14.672Z,25.26
2024-04-06T19:42:19.601Z,25.25
2024-04-06T19:47:22.717Z,25.24
2024-04-06T19:52:25.762Z,25.24
2024-04-06T19:57:28.929Z,25.23
2024-04-06T20:02:31.996Z,25.24
2024-04-06T20:07:35.933Z,25.22
2024-04-06T20:12:39.015Z,25.22
2024-04-06T20:17:42.071Z,25.21
2024-04-06T20:23:03.819Z,25.21
2024-04-06T20:28:06.995Z,25.21
2024-04-06T20:33:10.008Z,25.19
2024-04-06T20:38:13.028Z,25.19
2024-04-06T20:43:16.122Z,25.18
2024-04-06T20:48:19.766Z,25.18
2024-04-06T20:53:22.803Z,25.17
2024-04-06T20:58:25.993Z,25.17
2024-04-06T21:03:29.093Z,25.16
2024-04-06T21:08:32.228Z,25.15
2024-04-06T21:13:35.294Z,25.15
2024-04-06T21:18:38.350Z,25.14
2024-04-06T21:23:42.471Z,25.15
2024-04-06T21:28:45.631Z,25.13
2024-04-06T21:33:48.647Z,25.13
2024-04-06T21:38:51.746Z,25.13
2024-04-06T21:43:54.728Z,25.12
2024-04-06T21:48:58.149Z,25.12
2024-04-06T21:54:01.200Z,25.12
2024-04-06T21:59:04.434Z,25.11
2024-04-06T22:04:07.514Z,25.11
2024-04-06T22:09:10.675Z,25.10
2024-04-06T22:14:14.318Z,25.10
2024-04-06T22:19:19.567Z,25.09
2024-04-06T22:24:23.198Z,25.08
2024-04-06T22:29:26.323Z,25.06
2024-04-06T22:34:29.346Z,25.06
2024-04-06T22:39:32.393Z,25.05
2024-04-06T22:44:35.466Z,25.04
2024-04-06T22:49:38.511Z,25.05
2024-04-06T22:54:41.595Z,25.05
2024-04-06T22:59:47.985Z,25.04
2024-04-06T23:04:51.011Z,25.05
2024-04-06T23:09:54.113Z,25.04
2024-04-06T23:14:57.182Z,25.04
2024-04-06T23:20:00.263Z,25.03
2024-04-06T23:25:04.047Z,25.03
2024-04-06T23:30:08.484Z,25.02
2024-04-06T23:35:11.540Z,25.02
2024-04-06T23:40:14.618Z,25.02
2024-04-06T23:45:17.649Z,25.01
2024-04-06T23:50:20.739Z,25.02
2024-04-06T23:55:23.786Z,25.00
